sensor_id;sensor_type;location;lat;lon;timestamp;temperature;humidity
33645;DHT22;19986;48.190;16.366;2022-12-11T05:05:13;4.90;99.90
33645;DHT22;19986;48.190;16.366;2022-12-11T05:07:40;4.90;99.90
33645;DHT22;19986;48.190;16.366;2022-12-11T05:10:10;4.70;99.90
33645;DHT22;19986;48.190;16.366;2022-12-11T05:12:36;4.70;99.90
33645;DHT22;19986;48.190;16.366;2022-12-11T05:15:02;4.70;99.90
33645;DHT22;19986;48.190;16.366;2022-12-11T05:17:28;4.70;99.90
33645;DHT22;19986;48.190;16.366;2022-12-11T05:19:54;4.70;99.90
33645;DHT22;19986;48.190;16.366;2022-12-11T05:22:20;4.60;99.90
33645;DHT22;19986;48.190;16.366;2022-12-11T05:24:46;4.60;99.90
33645;DHT22;19986;48.190;16.366;2022-12-11T05:27:12;4.50;99.90
33645;DHT22;19986;48.190;16.366;2022-12-11T05:29:37;4.50;99.90
33645;DHT22;19986;48.190;16.366;2022-12-11T05:32:04;4.50;99.90
33645;DHT22;19986;48.190;16.366;2022-12-11T05:34:30;4.50;99.90
33645;DHT22;19986;48.190;16.366;2022-12-11T05:36:55;4.50;99.90
33645;DHT22;19986;48.190;16.366;2022-12-11T05:39:21;4.50;99.90
33645;DHT22;19986;48.190;16.366;2022-12-11T05:41:47;4.40;99.90
33645;DHT22;19986;48.190;16.366;2022-12-11T05:44:13;4.40;99.90
33645;DHT22;19986;48.190;16.366;2022-12-11T05:46:39;4.40;99.90
33645;DHT22;19986;48.190;16.366;2022-12-11T05:49:06;4.30;99.90
33645;DHT22;19986;48.190;16.366;2022-12-11T05:51:33;4.30;99.90
33645;DHT22;19986;48.190;16.366;2022-12-11T05:54:00;4.30;99.90
33645;DHT22;19986;48.190;16.366;2022-12-11T05:56:28;4.30;99.90
33645;DHT22;19986;48.190;16.366;2022-12-11T05:58:55;4.40;99.90
33645;DHT22;19986;48.190;16.366;2022-12-11T06:01:27;4.40;99.90
33645;DHT22;19986;48.190;16.366;2022-12-11T06:03:55;4.40;99.90
33645;DHT22;19986;48.190;16.366;2022-12-11T06:06:22;4.50;99.90
33645;DHT22;19986;48.190;16.366;2022-12-11T06:08:52;4.50;99.90
33645;DHT22;19986;48.190;16.366;2022-12-11T06:11:18;4.50;99.90
33645;DHT22;19986;48.190;16.366;2022-12-11T06:13:44;4.50;99.90
33645;DHT22;19986;48.190;16.366;2022-12-11T06:16:13;4.40;99.90
33645;DHT22;19986;48.190;16.366;2022-12-11T06:18:41;4.50;99.90
33645;DHT22;19986;48.190;16.366;2022-12-11T06:21:26;4.50;99.90
33645;DHT22;19986;48.190;16.366;2022-12-11T06:23:55;4.40;99.90
33645;DHT22;19986;48.190;16.366;2022-12-11T06:26:22;4.40;99.90
33645;DHT22;19986;48.190;16.366;2022-12-11T06:28:48;4.40;99.90
33645;DHT22;19986;48.190;16.366;2022-12-11T06:31:15;4.30;99.90
33645;DHT22;19986;48.190;16.366;2022-12-11T06:33:41;4.30;99.90
33645;DHT22;19986;48.190;16.366;2022-12-11T06:36:10;4.30;99.90
33645;DHT22;19986;48.190;16.366;2022-12-11T06:38:36;4.40;99.90
33645;DHT22;19986;48.190;16.366;2022-12-11T06:41:04;4.40;99.90
33645;DHT22;19986;48.190;16.366;2022-12-11T06:43:31;4.40;99.90
33645;DHT22;19986;48.190;16.366;2022-12-11T06:45:57;4.50;99.90
33645;DHT22;19986;48.190;16.366;2022-12-11T06:48:24;4.40;99.90
33645;DHT22;19986;48.190;16.366;2022-12-11T06:50:50;4.40;99.90
33645;DHT22;19986;48.190;16.366;2022-12-11T06:53:16;4.40;99.90
33645;DHT22;19986;48.190;16.366;2022-12-11T06:55:42;4.40;99.90
33645;DHT22;19986;48.190;16.366;2022-12-11T06:58:09;4.40;99.90
33645;DHT22;19986;48.190;16.366;2022-12-11T07:00:37;4.50;99.90
33645;DHT22;19986;48.190;16.366;2022-12-11T07:03:03;4.60;99.90
33645;DHT22;19986;48.190;16.366;2022-12-11T07:05:30;4.50;99.90
33645;DHT22;19986;48.190;16.366;2022-12-11T07:07:57;4.50;99.90
33645;DHT22;19986;48.190;16.366;2022-12-11T07:10:23;4.40;99.90
33645;DHT22;19986;48.190;16.366;2022-12-11T07:12:52;4.50;99.90
33645;DHT22;19986;48.190;16.366;2022-12-11T07:15:18;4.40;99.90
33645;DHT22;19986;48.190;16.366;2022-12-11T07:17:44;4.50;99.90
33645;DHT22;19986;48.190;16.366;2022-12-11T07:20:10;4.50;99.90
33645;DHT22;19986;48.190;16.366;2022-12-11T07:22:36;4.50;99.90
33645;DHT22;19986;48.190;16.366;2022-12-11T07:25:03;4.40;99.90
33645;DHT22;19986;48.190;16.366;2022-12-11T07:27:29;4.50;99.90
33645;DHT22;19986;48.190;16.366;2022-12-11T07:29:54;4.60;99.90
33645;DHT22;19986;48.190;16.366;2022-12-11T07:32:21;4.60;99.90
33645;DHT22;19986;48.190;16.366;2022-12-11T07:34:49;4.70;99.90
33645;DHT22;19986;48.190;16.366;2022-12-11T07:37:16;4.60;99.90
33645;DHT22;19986;48.190;16.366;2022-12-11T07:39:42;4.70;99.90
33645;DHT22;19986;48.190;16.366;2022-12-11T07:42:07;4.70;99.90
33645;DHT22;19986;48.190;16.366;2022-12-11T07:44:33;4.70;99.90
33645;DHT22;19986;48.190;16.366;2022-12-11T07:46:59;4.70;99.90
33645;DHT22;19986;48.190;16.366;2022-12-11T07:49:25;4.70;99.90
33645;DHT22;19986;48.190;16.366;2022-12-11T07:51:51;4.60;99.90
33645;DHT22;19986;48.190;16.366;2022-12-11T07:54:17;4.70;99.90
33645;DHT22;19986;48.190;16.366;2022-12-11T07:56:46;4.70;99.90
33645;DHT22;19986;48.190;16.366;2022-12-11T07:59:13;4.70;99.90
33645;DHT22;19986;48.190;16.366;2022-12-11T08:01:40;4.80;99.90
33645;DHT22;19986;48.190;16.366;2022-12-11T08:04:09;4.80;99.90
33645;DHT22;19986;48.190;16.366;2022-12-11T08:06:37;4.90;99.90
33645;DHT22;19986;48.190;16.366;2022-12-11T08:09:07;4.90;99.90
33645;DHT22;19986;48.190;16.366;2022-12-11T08:11:33;4.80;99.90
33645;DHT22;19986;48.190;16.366;2022-12-11T08:14:00;4.80;99.90
33645;DHT22;19986;48.190;16.366;2022-12-11T08:16:27;4.80;99.90
33645;DHT22;19986;48.190;16.366;2022-12-11T08:18:53;4.90;99.90
33645;DHT22;19986;48.190;16.366;2022-12-11T08:21:24;4.90;99.90
33645;DHT22;19986;48.190;16.366;2022-12-11T08:23:54;5.00;99.90
33645;DHT22;19986;48.190;16.366;2022-12-11T08:26:28;4.90;99.90
33645;DHT22;19986;48.190;16.366;2022-12-11T08:28:55;4.80;99.90
33645;DHT22;19986;48.190;16.366;2022-12-11T08:31:21;4.80;99.90
33645;DHT22;19986;48.190;16.366;2022-12-11T08:33:48;4.90;99.90
33645;DHT22;19986;48.190;16.366;2022-12-11T08:36:17;5.00;99.90
33645;DHT22;19986;48.190;16.366;2022-12-11T08:38:44;5.00;99.90
33645;DHT22;19986;48.190;16.366;2022-12-11T08:41:22;5.10;99.90
33645;DHT22;19986;48.190;16.366;2022-12-11T08:43:48;5.00;99.90
33645;DHT22;19986;48.190;16.366;2022-12-11T08:46:23;5.00;99.90
33645;DHT22;19986;48.190;16.366;2022-12-11T08:48:53;4.90;99.90
33645;DHT22;19986;48.190;16.366;2022-12-11T08:51:21;5.00;99.90
33645;DHT22;19986;48.190;16.366;2022-12-11T08:53:48;5.10;99.90
33645;DHT22;19986;48.190;16.366;2022-12-11T08:56:17;5.00;99.90
33645;DHT22;19986;48.190;16.366;2022-12-11T08:58:43;5.10;99.90
33645;DHT22;19986;48.190;16.366;2022-12-11T09:01:12;5.20;99.90
33645;DHT22;19986;48.190;16.366;2022-12-11T09:03:38;5.20;99.90
33645;DHT22;19986;48.190;16.366;2022-12-11T09:06:06;5.30;99.90
33645;DHT22;19986;48.190;16.366;2022-12-11T09:08:33;5.30;99.90
33645;DHT22;19986;48.190;16.366;2022-12-11T09:11:08;5.30;99.90
33645;DHT22;19986;48.190;16.366;2022-12-11T09:13:34;5.40;99.90
33645;DHT22;19986;48.190;16.366;2022-12-11T09:16:02;5.30;99.90
33645;DHT22;19986;48.190;16.366;2022-12-11T09:18:28;5.30;99.90
33645;DHT22;19986;48.190;16.366;2022-12-11T09:21:02;5.10;99.90
33645;DHT22;19986;48.190;16.366;2022-12-11T09:23:29;5.00;99.90
33645;DHT22;19986;48.190;16.366;2022-12-11T09:25:55;4.90;99.90
33645;DHT22;19986;48.190;16.366;2022-12-11T09:28:21;4.90;99.90
33645;DHT22;19986;48.190;16.366;2022-12-11T09:30:47;4.90;99.90
33645;DHT22;19986;48.190;16.366;2022-12-11T09:33:13;4.90;99.90
33645;DHT22;19986;48.190;16.366;2022-12-11T09:35:39;4.80;99.90
33645;DHT22;19986;48.190;16.366;2022-12-11T09:38:05;4.90;99.90
33645;DHT22;19986;48.190;16.366;2022-12-11T09:40:31;4.80;99.90
33645;DHT22;19986;48.190;16.366;2022-12-11T09:43:04;4.70;99.90
33645;DHT22;19986;48.190;16.366;2022-12-11T09:45:32;4.70;99.90
33645;DHT22;19986;48.190;16.366;2022-12-11T09:47:59;4.70;99.90
33645;DHT22;19986;48.190;16.366;2022-12-11T09:50:30;4.70;99.90
33645;DHT22;19986;48.190;16.366;2022-12-11T09:53:23;4.80;99.90
33645;DHT22;19986;48.190;16.366;2022-12-11T09:56:14;4.80;99.90
33645;DHT22;19986;48.190;16.366;2022-12-11T10:01:28;4.90;99.90
33645;DHT22;19986;48.190;16.366;2022-12-11T10:06:34;4.90;99.90
33645;DHT22;19986;48.190;16.366;2022-12-11T10:09:27;4.90;99.90
33645;DHT22;19986;48.190;16.366;2022-12-11T10:12:06;4.90;99.90
33645;DHT22;19986;48.190;16.366;2022-12-11T10:17:17;4.90;99.90
33645;DHT22;19986;48.190;16.366;2022-12-11T10:19:45;4.80;99.90
33645;DHT22;19986;48.190;16.366;2022-12-11T10:22:29;4.80;99.90
33645;DHT22;19986;48.190;16.366;2022-12-11T10:25:06;4.80;99.90
33645;DHT22;19986;48.190;16.366;2022-12-11T10:27:36;4.90;99.90
33645;DHT22;19986;48.190;16.366;2022-12-11T10:33:20;4.90;99.90
33645;DHT22;19986;48.190;16.366;2022-12-11T10:35:55;4.90;99.90
33645;DHT22;19986;48.190;16.366;2022-12-11T10:38:31;4.90;99.90
33645;DHT22;19986;48.190;16.366;2022-12-11T10:41:00;4.90;99.90
33645;DHT22;19986;48.190;16.366;2022-12-11T10:43:39;5.00;99.90
33645;DHT22;19986;48.190;16.366;2022-12-11T10:48:50;5.20;99.90
33645;DHT22;19986;48.190;16.366;2022-12-11T10:51:20;5.20;99.90
33645;DHT22;19986;48.190;16.366;2022-12-11T10:53:51;5.20;99.90
33645;DHT22;19986;48.190;16.366;2022-12-11T10:56:27;5.30;99.90
33645;DHT22;19986;48.190;16.366;2022-12-11T10:58:55;5.30;99.90
33645;DHT22;19986;48.190;16.366;2022-12-11T11:01:24;5.30;99.90
33645;DHT22;19986;48.190;16.366;2022-12-11T11:03:57;5.30;99.90
33645;DHT22;19986;48.190;16.366;2022-12-11T11:06:24;5.20;99.90
33645;DHT22;19986;48.190;16.366;2022-12-11T11:08:53;5.10;99.90
33645;DHT22;19986;48.190;16.366;2022-12-11T11:13:45;5.30;99.90
33645;DHT22;19986;48.190;16.366;2022-12-11T11:16:17;5.30;99.90
33645;DHT22;19986;48.190;16.366;2022-12-11T11:18:53;5.40;99.90
33645;DHT22;19986;48.190;16.366;2022-12-11T11:21:21;5.50;99.90
33645;DHT22;19986;48.190;16.366;2022-12-11T11:23:49;5.50;99.90
33645;DHT22;19986;48.190;16.366;2022-12-11T11:26:16;5.50;99.90
33645;DHT22;19986;48.190;16.366;2022-12-11T11:28:48;5.60;99.90
33645;DHT22;19986;48.190;16.366;2022-12-11T11:31:16;5.70;99.90
33645;DHT22;19986;48.190;16.366;2022-12-11T11:34:07;5.80;99.90
33645;DHT22;19986;48.190;16.366;2022-12-11T11:36:36;5.80;99.90
33645;DHT22;19986;48.190;16.366;2022-12-11T11:39:32;5.80;99.90
33645;DHT22;19986;48.190;16.366;2022-12-11T11:44:48;5.80;99.90
33645;DHT22;19986;48.190;16.366;2022-12-11T11:47:44;5.70;99.90
33645;DHT22;19986;48.190;16.366;2022-12-11T11:50:11;5.70;99.90
33645;DHT22;19986;48.190;16.366;2022-12-11T11:52:47;5.60;99.90
33645;DHT22;19986;48.190;16.366;2022-12-11T11:55:18;5.50;99.90
33645;DHT22;19986;48.190;16.366;2022-12-11T11:58:23;5.50;99.90
33645;DHT22;19986;48.190;16.366;2022-12-11T12:00:53;5.40;99.90
33645;DHT22;19986;48.190;16.366;2022-12-11T12:03:21;5.30;99.90
33645;DHT22;19986;48.190;16.366;2022-12-11T12:06:01;5.30;99.90
33645;DHT22;19986;48.190;16.366;2022-12-11T12:11:48;5.20;99.90
33645;DHT22;19986;48.190;16.366;2022-12-11T12:17:04;5.10;99.90
33645;DHT22;19986;48.190;16.366;2022-12-11T12:22:12;5.20;99.90
33645;DHT22;19986;48.190;16.366;2022-12-11T12:25:14;5.10;99.90
33645;DHT22;19986;48.190;16.366;2022-12-11T12:36:52;5.10;99.90
33645;DHT22;19986;48.190;16.366;2022-12-11T12:48:24;4.90;99.90
33645;DHT22;19986;48.190;16.366;2022-12-11T12:50:55;4.90;99.90
33645;DHT22;19986;48.190;16.366;2022-12-11T12:53:30;4.90;99.90
33645;DHT22;19986;48.190;16.366;2022-12-11T12:55:58;4.80;99.90
33645;DHT22;19986;48.190;16.366;2022-12-11T13:00:52;4.70;99.90
33645;DHT22;19986;48.190;16.366;2022-12-11T13:03:24;4.70;99.90
33645;DHT22;19986;48.190;16.366;2022-12-11T13:06:05;4.70;99.90
33645;DHT22;19986;48.190;16.366;2022-12-11T13:08:46;4.70;99.90
33645;DHT22;19986;48.190;16.366;2022-12-11T13:11:15;4.70;99.90
33645;DHT22;19986;48.190;16.366;2022-12-11T13:14:00;4.70;99.90
33645;DHT22;19986;48.190;16.366;2022-12-11T13:16:48;4.70;99.90
33645;DHT22;19986;48.190;16.366;2022-12-11T13:27:39;4.60;99.90
33645;DHT22;19986;48.190;16.366;2022-12-11T13:35:30;4.70;99.90
33645;DHT22;19986;48.190;16.366;2022-12-11T13:38:03;4.80;99.90
33645;DHT22;19986;48.190;16.366;2022-12-11T13:40:37;4.70;99.90
33645;DHT22;19986;48.190;16.366;2022-12-11T13:43:30;4.70;99.90
33645;DHT22;19986;48.190;16.366;2022-12-11T13:45:59;4.60;99.90
33645;DHT22;19986;48.190;16.366;2022-12-11T13:48:46;4.60;99.90
33645;DHT22;19986;48.190;16.366;2022-12-11T13:51:16;4.60;99.90
33645;DHT22;19986;48.190;16.366;2022-12-11T13:53:43;4.60;99.90
33645;DHT22;19986;48.190;16.366;2022-12-11T13:56:16;4.60;99.90
33645;DHT22;19986;48.190;16.366;2022-12-11T13:58:42;4.70;99.90
33645;DHT22;19986;48.190;16.366;2022-12-11T14:01:19;4.70;99.90
33645;DHT22;19986;48.190;16.366;2022-12-11T14:04:01;4.80;99.90
33645;DHT22;19986;48.190;16.366;2022-12-11T14:06:29;4.80;99.90
33645;DHT22;19986;48.190;16.366;2022-12-11T14:08:59;4.90;99.90
33645;DHT22;19986;48.190;16.366;2022-12-11T14:11:39;4.90;99.90
33645;DHT22;19986;48.190;16.366;2022-12-11T14:14:15;4.80;99.90
33645;DHT22;19986;48.190;16.366;2022-12-11T14:16:47;4.80;99.90
33645;DHT22;19986;48.190;16.366;2022-12-11T14:19:16;4.80;99.90
33645;DHT22;19986;48.190;16.366;2022-12-11T14:22:04;4.70;99.90
33645;DHT22;19986;48.190;16.366;2022-12-11T14:24:30;4.70;99.90
33645;DHT22;19986;48.190;16.366;2022-12-11T14:26:57;4.60;99.90
33645;DHT22;19986;48.190;16.366;2022-12-11T14:29:25;4.60;99.90
33645;DHT22;19986;48.190;16.366;2022-12-11T14:31:52;4.70;99.90
33645;DHT22;19986;48.190;16.366;2022-12-11T14:34:24;4.70;99.90
33645;DHT22;19986;48.190;16.366;2022-12-11T14:36:54;4.60;99.90
33645;DHT22;19986;48.190;16.366;2022-12-11T14:39:40;4.60;99.90
33645;DHT22;19986;48.190;16.366;2022-12-11T14:42:12;4.50;99.90
33645;DHT22;19986;48.190;16.366;2022-12-11T14:47:21;4.50;99.90
33645;DHT22;19986;48.190;16.366;2022-12-11T14:52:32;4.50;99.90
33645;DHT22;19986;48.190;16.366;2022-12-11T14:55:19;4.60;99.90
33645;DHT22;19986;48.190;16.366;2022-12-11T14:57:49;4.60;99.90
33645;DHT22;19986;48.190;16.366;2022-12-11T15:00:36;4.50;99.90
33645;DHT22;19986;48.190;16.366;2022-12-11T15:05:51;4.70;99.90
33645;DHT22;19986;48.190;16.366;2022-12-11T15:08:23;4.60;99.90
33645;DHT22;19986;48.190;16.366;2022-12-11T15:11:11;4.60;99.90
33645;DHT22;19986;48.190;16.366;2022-12-11T15:13:59;4.50;99.90
33645;DHT22;19986;48.190;16.366;2022-12-11T15:16:31;4.50;99.90
33645;DHT22;19986;48.190;16.366;2022-12-11T15:18:58;4.40;99.90
33645;DHT22;19986;48.190;16.366;2022-12-11T15:21:33;4.30;99.90
33645;DHT22;19986;48.190;16.366;2022-12-11T15:24:04;4.30;99.90
33645;DHT22;19986;48.190;16.366;2022-12-11T15:26:45;4.40;99.90
33645;DHT22;19986;48.190;16.366;2022-12-11T15:29:34;4.30;99.90
33645;DHT22;19986;48.190;16.366;2022-12-11T15:35:36;4.20;99.90
33645;DHT22;19986;48.190;16.366;2022-12-11T15:37:33;4.20;99.90
33645;DHT22;19986;48.190;16.366;2022-12-11T15:40:06;4.20;99.90
33645;DHT22;19986;48.190;16.366;2022-12-11T15:42:36;4.30;99.90
33645;DHT22;19986;48.190;16.366;2022-12-11T15:45:07;4.30;99.90
33645;DHT22;19986;48.190;16.366;2022-12-11T15:47:33;4.30;99.90
33645;DHT22;19986;48.190;16.366;2022-12-11T15:50:06;4.40;99.90
33645;DHT22;19986;48.190;16.366;2022-12-11T15:52:34;4.40;99.90
33645;DHT22;19986;48.190;16.366;2022-12-11T15:55:00;4.40;99.90
33645;DHT22;19986;48.190;16.366;2022-12-11T15:57:26;4.40;99.90
33645;DHT22;19986;48.190;16.366;2022-12-11T15:59:53;4.40;99.90
33645;DHT22;19986;48.190;16.366;2022-12-11T16:02:19;4.40;99.90
33645;DHT22;19986;48.190;16.366;2022-12-11T16:04:45;4.40;99.90
33645;DHT22;19986;48.190;16.366;2022-12-11T16:07:23;4.50;99.90
33645;DHT22;19986;48.190;16.366;2022-12-11T16:09:49;4.30;99.90
33645;DHT22;19986;48.190;16.366;2022-12-11T16:12:16;4.30;99.90
33645;DHT22;19986;48.190;16.366;2022-12-11T16:14:43;4.30;99.90
33645;DHT22;19986;48.190;16.366;2022-12-11T16:17:11;4.30;99.90
33645;DHT22;19986;48.190;16.366;2022-12-11T16:19:38;4.30;99.90
33645;DHT22;19986;48.190;16.366;2022-12-11T16:22:06;4.40;99.90
33645;DHT22;19986;48.190;16.366;2022-12-11T16:24:35;4.40;99.90
33645;DHT22;19986;48.190;16.366;2022-12-11T16:27:02;4.40;99.90
33645;DHT22;19986;48.190;16.366;2022-12-11T16:29:28;4.50;99.90
33645;DHT22;19986;48.190;16.366;2022-12-11T16:31:54;4.40;99.90
33645;DHT22;19986;48.190;16.366;2022-12-11T16:34:26;4.50;99.90
33645;DHT22;19986;48.190;16.366;2022-12-11T16:36:55;4.50;99.90
33645;DHT22;19986;48.190;16.366;2022-12-11T16:39:21;4.50;99.90
33645;DHT22;19986;48.190;16.366;2022-12-11T16:41:50;4.50;99.90
33645;DHT22;19986;48.190;16.366;2022-12-11T16:44:20;4.50;99.90
33645;DHT22;19986;48.190;16.366;2022-12-11T16:46:47;4.50;99.90
33645;DHT22;19986;48.190;16.366;2022-12-11T16:49:13;4.50;99.90
33645;DHT22;19986;48.190;16.366;2022-12-11T16:51:40;4.50;99.90
33645;DHT22;19986;48.190;16.366;2022-12-11T16:54:06;4.50;99.90
33645;DHT22;19986;48.190;16.366;2022-12-11T16:56:32;4.40;99.90
33645;DHT22;19986;48.190;16.366;2022-12-11T16:59:00;4.40;99.90
33645;DHT22;19986;48.190;16.366;2022-12-11T17:01:27;4.50;99.90
33645;DHT22;19986;48.190;16.366;2022-12-11T17:03:53;4.40;99.90
33645;DHT22;19986;48.190;16.366;2022-12-11T17:06:19;4.40;99.90
33645;DHT22;19986;48.190;16.366;2022-12-11T17:08:46;4.40;99.90
33645;DHT22;19986;48.190;16.366;2022-12-11T17:11:17;4.30;99.90
33645;DHT22;19986;48.190;16.366;2022-12-11T17:13:43;4.30;99.90
33645;DHT22;19986;48.190;16.366;2022-12-11T17:16:11;4.40;99.90
33645;DHT22;19986;48.190;16.366;2022-12-11T17:18:38;4.40;99.90
33645;DHT22;19986;48.190;16.366;2022-12-11T17:21:09;4.30;99.90
33645;DHT22;19986;48.190;16.366;2022-12-11T17:23:36;4.30;99.90
33645;DHT22;19986;48.190;16.366;2022-12-11T17:26:03;4.30;99.90
33645;DHT22;19986;48.190;16.366;2022-12-11T17:28:31;4.30;99.90
33645;DHT22;19986;48.190;16.366;2022-12-11T17:30:57;4.40;99.90
33645;DHT22;19986;48.190;16.366;2022-12-11T17:33:23;4.30;99.90
33645;DHT22;19986;48.190;16.366;2022-12-11T17:35:50;4.20;99.90
33645;DHT22;19986;48.190;16.366;2022-12-11T17:38:18;4.20;99.90
33645;DHT22;19986;48.190;16.366;2022-12-11T17:40:44;4.20;99.90
33645;DHT22;19986;48.190;16.366;2022-12-11T17:43:12;4.10;99.90
33645;DHT22;19986;48.190;16.366;2022-12-11T17:48:08;4.10;99.90
33645;DHT22;19986;48.190;16.366;2022-12-11T17:50:41;4.20;99.90
33645;DHT22;19986;48.190;16.366;2022-12-11T17:53:09;4.30;99.90
33645;DHT22;19986;48.190;16.366;2022-12-11T17:55:37;4.20;99.90
33645;DHT22;19986;48.190;16.366;2022-12-11T17:58:12;4.20;99.90
33645;DHT22;19986;48.190;16.366;2022-12-11T18:00:40;4.20;99.90
33645;DHT22;19986;48.190;16.366;2022-12-11T18:03:06;4.20;99.90
33645;DHT22;19986;48.190;16.366;2022-12-11T18:05:33;4.20;99.90
33645;DHT22;19986;48.190;16.366;2022-12-11T18:07:59;4.20;99.90
33645;DHT22;19986;48.190;16.366;2022-12-11T18:10:26;4.30;99.90
33645;DHT22;19986;48.190;16.366;2022-12-11T18:12:52;4.30;99.90
33645;DHT22;19986;48.190;16.366;2022-12-11T18:15:20;4.20;99.90
33645;DHT22;19986;48.190;16.366;2022-12-11T18:17:46;4.10;99.90
33645;DHT22;19986;48.190;16.366;2022-12-11T18:20:13;4.00;99.90
33645;DHT22;19986;48.190;16.366;2022-12-11T18:22:40;4.00;99.90
33645;DHT22;19986;48.190;16.366;2022-12-11T18:25:07;4.10;99.90
33645;DHT22;19986;48.190;16.366;2022-12-11T18:27:35;4.00;99.90
33645;DHT22;19986;48.190;16.366;2022-12-11T18:30:02;4.00;99.90
33645;DHT22;19986;48.190;16.366;2022-12-11T18:32:29;3.90;99.90
33645;DHT22;19986;48.190;16.366;2022-12-11T18:34:55;3.80;99.90
33645;DHT22;19986;48.190;16.366;2022-12-11T18:37:21;3.70;99.90
33645;DHT22;19986;48.190;16.366;2022-12-11T18:39:47;3.70;99.90
33645;DHT22;19986;48.190;16.366;2022-12-11T18:42:13;3.70;99.90
33645;DHT22;19986;48.190;16.366;2022-12-11T18:44:40;3.70;99.90
33645;DHT22;19986;48.190;16.366;2022-12-11T18:47:08;3.80;99.90
33645;DHT22;19986;48.190;16.366;2022-12-11T18:49:36;3.80;99.90
33645;DHT22;19986;48.190;16.366;2022-12-11T18:52:03;3.80;99.90
33645;DHT22;19986;48.190;16.366;2022-12-11T18:54:29;3.70;99.90
33645;DHT22;19986;48.190;16.366;2022-12-11T18:56:55;3.70;99.90
33645;DHT22;19986;48.190;16.366;2022-12-11T18:59:22;3.70;99.90
33645;DHT22;19986;48.190;16.366;2022-12-11T19:01:48;3.70;99.90
33645;DHT22;19986;48.190;16.366;2022-12-11T19:04:17;3.80;99.90
33645;DHT22;19986;48.190;16.366;2022-12-11T19:06:44;3.90;99.90
33645;DHT22;19986;48.190;16.366;2022-12-11T19:09:11;4.00;99.90
33645;DHT22;19986;48.190;16.366;2022-12-11T19:11:40;4.00;99.90
33645;DHT22;19986;48.190;16.366;2022-12-11T19:14:08;4.00;99.90
33645;DHT22;19986;48.190;16.366;2022-12-11T19:16:37;4.00;99.90
33645;DHT22;19986;48.190;16.366;2022-12-11T19:19:08;4.00;99.90
33645;DHT22;19986;48.190;16.366;2022-12-11T19:21:36;4.00;99.90
33645;DHT22;19986;48.190;16.366;2022-12-11T19:24:05;3.90;99.90
33645;DHT22;19986;48.190;16.366;2022-12-11T19:26:32;3.90;99.90
33645;DHT22;19986;48.190;16.366;2022-12-11T19:28:59;3.90;99.90
33645;DHT22;19986;48.190;16.366;2022-12-11T19:31:27;3.90;99.90
33645;DHT22;19986;48.190;16.366;2022-12-11T19:33:54;4.00;99.90
33645;DHT22;19986;48.190;16.366;2022-12-11T19:36:24;3.90;99.90
33645;DHT22;19986;48.190;16.366;2022-12-11T19:38:52;3.90;99.90
33645;DHT22;19986;48.190;16.366;2022-12-11T19:41:24;3.80;99.90
33645;DHT22;19986;48.190;16.366;2022-12-11T19:43:56;3.90;99.90
33645;DHT22;19986;48.190;16.366;2022-12-11T19:46:23;3.90;99.90
33645;DHT22;19986;48.190;16.366;2022-12-11T19:48:51;3.90;99.90
33645;DHT22;19986;48.190;16.366;2022-12-11T19:51:21;3.90;99.90
33645;DHT22;19986;48.190;16.366;2022-12-11T19:53:49;3.90;99.90
33645;DHT22;19986;48.190;16.366;2022-12-11T19:56:17;3.90;99.90
33645;DHT22;19986;48.190;16.366;2022-12-11T19:58:44;4.00;99.90
33645;DHT22;19986;48.190;16.366;2022-12-11T20:01:21;4.10;99.90
33645;DHT22;19986;48.190;16.366;2022-12-11T20:03:54;4.10;99.90
33645;DHT22;19986;48.190;16.366;2022-12-11T20:06:21;4.10;99.90
33645;DHT22;19986;48.190;16.366;2022-12-11T20:08:48;4.00;99.90
33645;DHT22;19986;48.190;16.366;2022-12-11T20:11:15;4.00;99.90
33645;DHT22;19986;48.190;16.366;2022-12-11T20:13:43;3.90;99.90
33645;DHT22;19986;48.190;16.366;2022-12-11T20:16:14;3.80;99.90
33645;DHT22;19986;48.190;16.366;2022-12-11T20:18:43;3.80;99.90
33645;DHT22;19986;48.190;16.366;2022-12-11T20:21:16;3.80;99.90
33645;DHT22;19986;48.190;16.366;2022-12-11T20:23:44;3.90;99.90
33645;DHT22;19986;48.190;16.366;2022-12-11T20:26:16;4.00;99.90
33645;DHT22;19986;48.190;16.366;2022-12-11T20:28:44;3.90;99.90
33645;DHT22;19986;48.190;16.366;2022-12-11T20:31:15;4.00;99.90
33645;DHT22;19986;48.190;16.366;2022-12-11T20:33:43;3.90;99.90
33645;DHT22;19986;48.190;16.366;2022-12-11T20:36:12;3.90;99.90
33645;DHT22;19986;48.190;16.366;2022-12-11T20:38:40;4.00;99.90
33645;DHT22;19986;48.190;16.366;2022-12-11T20:41:12;4.10;99.90
33645;DHT22;19986;48.190;16.366;2022-12-11T20:43:39;4.10;99.90
33645;DHT22;19986;48.190;16.366;2022-12-11T20:46:07;4.10;99.90
33645;DHT22;19986;48.190;16.366;2022-12-11T20:48:35;4.10;99.90
33645;DHT22;19986;48.190;16.366;2022-12-11T20:51:03;4.10;99.90
33645;DHT22;19986;48.190;16.366;2022-12-11T20:53:29;4.20;99.90
33645;DHT22;19986;48.190;16.366;2022-12-11T20:55:59;4.20;99.90
33645;DHT22;19986;48.190;16.366;2022-12-11T20:58:27;4.10;99.90
